Genmar Spyridon — V7BY9 — position and weather

sailwx.info

Track history (hours):
 
Tides and Currents Weather Stations Pressure Air Temp Water Temp Dewpoint Dewpoint Depression Visibility Wind Speed Wind Dir Waves Ship Positions

Genmar Spyridon

Last reported at 2014-Aug-12 06:22 UTC. Time now 2014-Aug-30 14:30 UTC.
Position N 36°41' W 001°26'.
Warning: this ship's position is 18 days out of date.

Length 274 m; draft 9 m.

Type: Tanker. MMSI: 538001404.

Date/timePositionNaut miles runAvg speedWind from/ knotsBaromVisibWave heightAir tempDewpointWater temp
2014-Aug-12 06:22N 36°41' W 001°26'0 0.2
2014-Aug-12 05:28N 36°41' W 001°26'0 0.3
2014-Aug-12 04:33N 36°41' W 001°26'0 0.4
2014-Aug-12 03:33N 36°42' W 001°26'1 0.6
2014-Aug-12 02:33N 36°42' W 001°26'1 0.7
2014-Aug-12 01:33N 36°43' W 001°26'1 0.7
2014-Aug-12 00:33N 36°44' W 001°26'1 0.7
2014-Aug-11 23:33N 36°44' W 001°27'1 0.6
2014-Aug-11 22:34N 36°44' W 001°28'1 0.6
2014-Aug-11 21:33N 36°45' W 001°28'1 0.7
2014-Aug-11 20:33N 36°45' W 001°29'1 0.7
2014-Aug-11 19:33N 36°45' W 001°30'1 0.6
2014-Aug-11 18:30N 36°44' W 001°31'1 0.6
2014-Aug-11 17:32N 36°44' W 001°31'1 0.7
2014-Aug-11 15:27N 36°44' W 001°33'0 0.5
2014-Aug-11 14:32N 36°44' W 001°34'1 0.4
2014-Aug-11 13:14N 36°44' W 001°34'0 0.5
2014-Aug-11 12:15N 36°44' W 001°35'0 0.5
2014-Aug-11 11:30N 36°44' W 001°35'1 0.7
2014-Aug-11 09:31N 36°44' W 001°37'11 9.0
2014-Aug-11 08:15N 36°45' W 001°23'912.7
2014-Aug-11 07:34N 36°45' W 001°12'1211.7
2014-Aug-11 06:31N 36°45' W 000°56'1 1.4
2014-Aug-11 05:33N 36°45' W 000°58'1 1.2
2014-Aug-11 04:31N 36°46' W 000°59'1 1.3
2014-Aug-11 03:33N 36°46' W 001°01'1 1.3
2014-Aug-11 02:31N 36°46' W 001°03'1 1.2
2014-Aug-11 01:33N 36°45' W 001°04'1 1.1
2014-Aug-11 00:33N 36°45' W 001°05'2 1.7
2014-Aug-10 23:31N 36°45' W 001°08'1 1.1
2014-Aug-10 22:33N 36°45' W 001°09'1 0.7
2014-Aug-10 21:33N 36°44' W 001°10'1 0.4
2014-Aug-10 19:33N 36°44' W 001°11'0 0.4
2014-Aug-10 18:33N 36°45' W 001°11'1 0.6
2014-Aug-10 17:33N 36°45' W 001°12'1 0.6
2014-Aug-10 16:33N 36°45' W 001°12'1 0.9
2014-Aug-10 15:33N 36°46' W 001°13'1110.7
2014-Aug-10 14:33N 36°51' W 001°24'7 6.8
2014-Aug-10 13:28N 36°53' W 001°33'1 0.9
2014-Aug-10 12:33N 36°52' W 001°33'3 1.0
2014-Aug-10 09:21N 36°50' W 001°30'1 0.7
2014-Aug-10 08:31N 36°49' W 001°30'1 0.4
2014-Aug-10 05:20N 36°49' W 001°28'1 0.4
2014-Aug-10 03:30N 36°50' W 001°28'1 0.7
2014-Aug-10 02:32N 36°50' W 001°29'1 0.7
2014-Aug-10 01:34N 36°51' W 001°29'1 0.6
2014-Aug-10 00:33N 36°51' W 001°30'1 0.7
2014-Aug-09 23:33N 36°50' W 001°31'0 0.4
2014-Aug-09 22:24N 36°50' W 001°31'1 0.6
2014-Aug-09 21:20N 36°49' W 001°31'1 0.5
2014-Aug-09 19:33N 36°48' W 001°31'0 0.5
2014-Aug-09 18:33N 36°48' W 001°31'1 0.6
2014-Aug-09 17:31N 36°47' W 001°31'1 0.7
2014-Aug-09 16:14N 36°47' W 001°30'2 0.6
2014-Aug-09 13:15N 36°47' W 001°28'1 0.5
2014-Aug-09 12:13N 36°47' W 001°27'1 0.6
2014-Aug-09 10:31N 36°48' W 001°26'4 4.2
2014-Aug-09 09:28N 36°52' W 001°29'1 1.1
2014-Aug-09 08:11N 36°52' W 001°30'0 0.3
2014-Aug-09 07:33N 36°52' W 001°31'0 0.3
2014-Aug-09 06:33N 36°52' W 001°31'0 0.3
2014-Aug-09 05:31N 36°52' W 001°31'0 0.2
2014-Aug-09 04:33N 36°52' W 001°31'0 0.2
2014-Aug-09 03:04N 36°51' W 001°31'0 0.2
2014-Aug-09 02:33N 36°51' W 001°31'0 0.1
2014-Aug-09 01:32N 36°51' W 001°31'0 0.1
2014-Aug-09 00:29N 36°51' W 001°31'0 0.2
2014-Aug-08 22:26N 36°51' W 001°31'0 0.2
2014-Aug-08 21:29N 36°50' W 001°31'0 0.3
2014-Aug-08 20:32N 36°50' W 001°31'0 0.4
2014-Aug-08 19:33N 36°50' W 001°30'0 0.4
2014-Aug-08 18:33N 36°50' W 001°30'1 0.4
2014-Aug-08 17:23N 36°50' W 001°29'0 0.5
2014-Aug-08 16:33N 36°50' W 001°29'1 0.6
2014-Aug-08 15:33N 36°50' W 001°28'1 0.6
2014-Aug-08 14:33N 36°51' W 001°28'1 0.5
2014-Aug-08 13:31N 36°51' W 001°28'0 0.4
2014-Aug-08 12:30N 36°52' W 001°28'0 0.3
2014-Aug-08 11:32N 36°52' W 001°28'0 0.1
2014-Aug-08 09:28N 36°52' W 001°27'0 0.2
2014-Aug-08 08:24N 36°52' W 001°27'0 0.1
2014-Aug-08 07:29N 36°52' W 001°27'0 0.1
2014-Aug-08 06:33N 36°52' W 001°27'0 0.2
2014-Aug-08 05:33N 36°52' W 001°27'0 0.3
2014-Aug-08 04:33N 36°52' W 001°27'0 0.3
2014-Aug-08 03:25N 36°53' W 001°26'1 0.3
2014-Aug-08 01:31N 36°53' W 001°26'0 0.2
2014-Aug-08 00:17N 36°53' W 001°26'0 0.3
2014-Aug-07 23:33N 36°54' W 001°26'0 0.4
2014-Aug-07 22:33N 36°54' W 001°25'0 0.4
2014-Aug-07 21:21N 36°54' W 001°25'0 0.4
2014-Aug-07 20:33N 36°55' W 001°25'0 0.4
2014-Aug-07 19:32N 36°55' W 001°25'0 0.4
2014-Aug-07 18:23N 36°55' W 001°24'1 0.3
2014-Aug-07 16:26N 36°56' W 001°24'0 0.2
2014-Aug-07 15:29N 36°56' W 001°24'0 0.0
2014-Aug-07 12:32N 36°56' W 001°24'1 0.3
2014-Aug-07 10:27N 36°55' W 001°24'1 0.4
2014-Aug-07 07:32N 36°54' W 001°24'1 0.3
2014-Aug-07 05:19N 36°54' W 001°23'0 0.6
2014-Aug-07 04:34N 36°54' W 001°23'1 0.6
2014-Aug-07 03:33N 36°55' W 001°22'1 0.6
2014-Aug-07 02:33N 36°55' W 001°22'0 0.5
2014-Aug-07 01:33N 36°56' W 001°22'1 0.5
2014-Aug-07 00:32N 36°56' W 001°22'1 0.5
2014-Aug-06 23:14N 36°57' W 001°22'0 0.5
2014-Aug-06 22:29N 36°57' W 001°22'1 0.6
2014-Aug-06 21:33N 36°58' W 001°23'1 0.7
2014-Aug-06 20:31N 36°58' W 001°24'1 0.5
2014-Aug-06 19:09N 36°58' W 001°24'0 0.5
2014-Aug-06 18:23N 36°59' W 001°25'0 0.5
2014-Aug-06 17:25N 36°59' W 001°25'1 0.6
2014-Aug-06 16:24N 36°59' W 001°26'4 0.7
2014-Aug-06 10:05N 36°55' W 001°25'6 0.4
2014-Aug-05 16:08N 36°52' W 001°17'0 0.4
2014-Aug-05 15:05N 36°52' W 001°17'1 0.5
2014-Aug-05 13:19N 36°52' W 001°16'2 0.4
2014-Aug-05 07:30N 36°50' W 001°14'0 0.3
2014-Aug-05 06:33N 36°50' W 001°14'0 0.3
2014-Aug-05 05:33N 36°50' W 001°14'2 0.5
2014-Aug-05 02:13N 36°50' W 001°17'0 0.7
2014-Aug-05 01:33N 36°49' W 001°17'1 1.0
2014-Aug-05 00:10N 36°49' W 001°19'1 0.9
2014-Aug-04 23:33N 36°49' W 001°19'1 0.9
2014-Aug-04 22:06N 36°48' W 001°20'0 0.7
2014-Aug-04 21:30N 36°48' W 001°21'1 0.7
2014-Aug-04 20:33N 36°47' W 001°21'1 0.9
2014-Aug-04 19:33N 36°46' W 001°21'4 3.3
2014-Aug-04 18:28N 36°48' W 001°17'1112.4
2014-Aug-04 17:33N 36°57' W 001°09'1613.0
2014-Aug-04 16:21N 37°12' W 001°04'1113.2
2014-Aug-04 15:33N 37°22' W 001°03'1010.1
2014-Aug-04 14:33N 37°33' W 001°03'  
Track history (hours):
 
Tides and Currents Weather Stations Pressure Air Temp Water Temp Dewpoint Dewpoint Depression Visibility Wind Speed Wind Dir Waves Ship Positions

Genmar Spyridon

Last reported at 2014-Aug-12 06:22 UTC. Time now 2014-Aug-30 14:30 UTC.
Position N 36°41' W 001°26'.
Warning: this ship's position is 18 days out of date.

Length 274 m; draft 9 m.

Type: Tanker. MMSI: 538001404.

Date/timePositionNaut miles runAvg speedWind from/ knotsBaromVisibWave heightAir tempDewpointWater temp
2014-Aug-12 06:22N 36°41' W 001°26'0 0.2
2014-Aug-12 05:28N 36°41' W 001°26'0 0.3
2014-Aug-12 04:33N 36°41' W 001°26'0 0.4
2014-Aug-12 03:33N 36°42' W 001°26'1 0.6
2014-Aug-12 02:33N 36°42' W 001°26'1 0.7
2014-Aug-12 01:33N 36°43' W 001°26'1 0.7
2014-Aug-12 00:33N 36°44' W 001°26'1 0.7
2014-Aug-11 23:33N 36°44' W 001°27'1 0.6
2014-Aug-11 22:34N 36°44' W 001°28'1 0.6
2014-Aug-11 21:33N 36°45' W 001°28'1 0.7
2014-Aug-11 20:33N 36°45' W 001°29'1 0.7
2014-Aug-11 19:33N 36°45' W 001°30'1 0.6
2014-Aug-11 18:30N 36°44' W 001°31'1 0.6
2014-Aug-11 17:32N 36°44' W 001°31'1 0.7
2014-Aug-11 15:27N 36°44' W 001°33'0 0.5
2014-Aug-11 14:32N 36°44' W 001°34'1 0.4
2014-Aug-11 13:14N 36°44' W 001°34'0 0.5
2014-Aug-11 12:15N 36°44' W 001°35'0 0.5
2014-Aug-11 11:30N 36°44' W 001°35'1 0.7
2014-Aug-11 09:31N 36°44' W 001°37'11 9.0
2014-Aug-11 08:15N 36°45' W 001°23'912.7
2014-Aug-11 07:34N 36°45' W 001°12'1211.7
2014-Aug-11 06:31N 36°45' W 000°56'1 1.4
2014-Aug-11 05:33N 36°45' W 000°58'1 1.2
2014-Aug-11 04:31N 36°46' W 000°59'1 1.3
2014-Aug-11 03:33N 36°46' W 001°01'1 1.3
2014-Aug-11 02:31N 36°46' W 001°03'1 1.2
2014-Aug-11 01:33N 36°45' W 001°04'1 1.1
2014-Aug-11 00:33N 36°45' W 001°05'2 1.7
2014-Aug-10 23:31N 36°45' W 001°08'1 1.1
2014-Aug-10 22:33N 36°45' W 001°09'1 0.7
2014-Aug-10 21:33N 36°44' W 001°10'1 0.4
2014-Aug-10 19:33N 36°44' W 001°11'0 0.4
2014-Aug-10 18:33N 36°45' W 001°11'1 0.6
2014-Aug-10 17:33N 36°45' W 001°12'1 0.6
2014-Aug-10 16:33N 36°45' W 001°12'1 0.9
2014-Aug-10 15:33N 36°46' W 001°13'1110.7
2014-Aug-10 14:33N 36°51' W 001°24'7 6.8
2014-Aug-10 13:28N 36°53' W 001°33'1 0.9
2014-Aug-10 12:33N 36°52' W 001°33'3 1.0
2014-Aug-10 09:21N 36°50' W 001°30'1 0.7
2014-Aug-10 08:31N 36°49' W 001°30'1 0.4
2014-Aug-10 05:20N 36°49' W 001°28'1 0.4
2014-Aug-10 03:30N 36°50' W 001°28'1 0.7
2014-Aug-10 02:32N 36°50' W 001°29'1 0.7
2014-Aug-10 01:34N 36°51' W 001°29'1 0.6
2014-Aug-10 00:33N 36°51' W 001°30'1 0.7
2014-Aug-09 23:33N 36°50' W 001°31'0 0.4
2014-Aug-09 22:24N 36°50' W 001°31'1 0.6
2014-Aug-09 21:20N 36°49' W 001°31'1 0.5
2014-Aug-09 19:33N 36°48' W 001°31'0 0.5
2014-Aug-09 18:33N 36°48' W 001°31'1 0.6
2014-Aug-09 17:31N 36°47' W 001°31'1 0.7
2014-Aug-09 16:14N 36°47' W 001°30'2 0.6
2014-Aug-09 13:15N 36°47' W 001°28'1 0.5
2014-Aug-09 12:13N 36°47' W 001°27'1 0.6
2014-Aug-09 10:31N 36°48' W 001°26'4 4.2
2014-Aug-09 09:28N 36°52' W 001°29'1 1.1
2014-Aug-09 08:11N 36°52' W 001°30'0 0.3
2014-Aug-09 07:33N 36°52' W 001°31'0 0.3
2014-Aug-09 06:33N 36°52' W 001°31'0 0.3
2014-Aug-09 05:31N 36°52' W 001°31'0 0.2
2014-Aug-09 04:33N 36°52' W 001°31'0 0.2
2014-Aug-09 03:04N 36°51' W 001°31'0 0.2
2014-Aug-09 02:33N 36°51' W 001°31'0 0.1
2014-Aug-09 01:32N 36°51' W 001°31'0 0.1
2014-Aug-09 00:29N 36°51' W 001°31'0 0.2
2014-Aug-08 22:26N 36°51' W 001°31'0 0.2
2014-Aug-08 21:29N 36°50' W 001°31'0 0.3
2014-Aug-08 20:32N 36°50' W 001°31'0 0.4
2014-Aug-08 19:33N 36°50' W 001°30'0 0.4
2014-Aug-08 18:33N 36°50' W 001°30'1 0.4
2014-Aug-08 17:23N 36°50' W 001°29'0 0.5
2014-Aug-08 16:33N 36°50' W 001°29'1 0.6
2014-Aug-08 15:33N 36°50' W 001°28'1 0.6
2014-Aug-08 14:33N 36°51' W 001°28'1 0.5
2014-Aug-08 13:31N 36°51' W 001°28'0 0.4
2014-Aug-08 12:30N 36°52' W 001°28'0 0.3
2014-Aug-08 11:32N 36°52' W 001°28'0 0.1
2014-Aug-08 09:28N 36°52' W 001°27'0 0.2
2014-Aug-08 08:24N 36°52' W 001°27'0 0.1
2014-Aug-08 07:29N 36°52' W 001°27'0 0.1
2014-Aug-08 06:33N 36°52' W 001°27'0 0.2
2014-Aug-08 05:33N 36°52' W 001°27'0 0.3
2014-Aug-08 04:33N 36°52' W 001°27'0 0.3
2014-Aug-08 03:25N 36°53' W 001°26'1 0.3
2014-Aug-08 01:31N 36°53' W 001°26'0 0.2
2014-Aug-08 00:17N 36°53' W 001°26'0 0.3
2014-Aug-07 23:33N 36°54' W 001°26'0 0.4
2014-Aug-07 22:33N 36°54' W 001°25'0 0.4
2014-Aug-07 21:21N 36°54' W 001°25'0 0.4
2014-Aug-07 20:33N 36°55' W 001°25'0 0.4
2014-Aug-07 19:32N 36°55' W 001°25'0 0.4
2014-Aug-07 18:23N 36°55' W 001°24'1 0.3
2014-Aug-07 16:26N 36°56' W 001°24'0 0.2
2014-Aug-07 15:29N 36°56' W 001°24'0 0.0
2014-Aug-07 12:32N 36°56' W 001°24'1 0.3
2014-Aug-07 10:27N 36°55' W 001°24'1 0.4
2014-Aug-07 07:32N 36°54' W 001°24'1 0.3
2014-Aug-07 05:19N 36°54' W 001°23'0 0.6
2014-Aug-07 04:34N 36°54' W 001°23'1 0.6
2014-Aug-07 03:33N 36°55' W 001°22'1 0.6
2014-Aug-07 02:33N 36°55' W 001°22'0 0.5
2014-Aug-07 01:33N 36°56' W 001°22'1 0.5
2014-Aug-07 00:32N 36°56' W 001°22'1 0.5
2014-Aug-06 23:14N 36°57' W 001°22'0 0.5
2014-Aug-06 22:29N 36°57' W 001°22'1 0.6
2014-Aug-06 21:33N 36°58' W 001°23'1 0.7
2014-Aug-06 20:31N 36°58' W 001°24'1 0.5
2014-Aug-06 19:09N 36°58' W 001°24'0 0.5
2014-Aug-06 18:23N 36°59' W 001°25'0 0.5
2014-Aug-06 17:25N 36°59' W 001°25'1 0.6
2014-Aug-06 16:24N 36°59' W 001°26'4 0.7
2014-Aug-06 10:05N 36°55' W 001°25'6 0.4
2014-Aug-05 16:08N 36°52' W 001°17'0 0.4
2014-Aug-05 15:05N 36°52' W 001°17'1 0.5
2014-Aug-05 13:19N 36°52' W 001°16'2 0.4
2014-Aug-05 07:30N 36°50' W 001°14'0 0.3
2014-Aug-05 06:33N 36°50' W 001°14'0 0.3
2014-Aug-05 05:33N 36°50' W 001°14'2 0.5
2014-Aug-05 02:13N 36°50' W 001°17'0 0.7
2014-Aug-05 01:33N 36°49' W 001°17'1 1.0
2014-Aug-05 00:10N 36°49' W 001°19'1 0.9
2014-Aug-04 23:33N 36°49' W 001°19'1 0.9
2014-Aug-04 22:06N 36°48' W 001°20'0 0.7
2014-Aug-04 21:30N 36°48' W 001°21'1 0.7
2014-Aug-04 20:33N 36°47' W 001°21'1 0.9
2014-Aug-04 19:33N 36°46' W 001°21'4 3.3
2014-Aug-04 18:28N 36°48' W 001°17'1112.4
2014-Aug-04 17:33N 36°57' W 001°09'1613.0
2014-Aug-04 16:21N 37°12' W 001°04'1113.2
2014-Aug-04 15:33N 37°22' W 001°03'1010.1
2014-Aug-04 14:33N 37°33' W 001°03'  

Dump ship's entire track history